sensor_id;sensor_type;location;lat;lon;timestamp;temperature;humidity
18888;DHT22;9576;47.792;9.628;2024-02-23T00:01:20;6.20;99.90
18888;DHT22;9576;47.792;9.628;2024-02-23T00:04:22;6.10;99.90
18888;DHT22;9576;47.792;9.628;2024-02-23T00:07:24;5.90;99.90
18888;DHT22;9576;47.792;9.628;2024-02-23T00:10:25;5.80;99.90
18888;DHT22;9576;47.792;9.628;2024-02-23T00:13:28;5.80;99.90
18888;DHT22;9576;47.792;9.628;2024-02-23T00:16:30;5.70;99.90
18888;DHT22;9576;47.792;9.628;2024-02-23T00:19:32;5.60;99.90
18888;DHT22;9576;47.792;9.628;2024-02-23T00:22:33;5.60;99.90
18888;DHT22;9576;47.792;9.628;2024-02-23T00:25:35;5.60;99.90
18888;DHT22;9576;47.792;9.628;2024-02-23T00:28:38;5.60;99.90
18888;DHT22;9576;47.792;9.628;2024-02-23T00:31:40;5.60;99.90
18888;DHT22;9576;47.792;9.628;2024-02-23T00:34:42;5.60;99.90
18888;DHT22;9576;47.792;9.628;2024-02-23T00:37:44;5.60;99.90
18888;DHT22;9576;47.792;9.628;2024-02-23T00:40:45;5.50;99.90
18888;DHT22;9576;47.792;9.628;2024-02-23T00:43:48;5.50;99.90
18888;DHT22;9576;47.792;9.628;2024-02-23T00:46:50;5.50;99.90
18888;DHT22;9576;47.792;9.628;2024-02-23T00:49:52;5.50;99.90
18888;DHT22;9576;47.792;9.628;2024-02-23T00:52:53;5.60;99.90
18888;DHT22;9576;47.792;9.628;2024-02-23T00:55:55;5.60;99.90
18888;DHT22;9576;47.792;9.628;2024-02-23T00:58:58;5.60;99.90
18888;DHT22;9576;47.792;9.628;2024-02-23T01:02:00;5.60;99.90
18888;DHT22;9576;47.792;9.628;2024-02-23T01:05:01;5.60;99.90
18888;DHT22;9576;47.792;9.628;2024-02-23T01:08:04;5.60;99.90
18888;DHT22;9576;47.792;9.628;2024-02-23T01:11:05;5.60;99.90
18888;DHT22;9576;47.792;9.628;2024-02-23T01:14:08;5.60;99.90
18888;DHT22;9576;47.792;9.628;2024-02-23T01:17:10;5.50;99.90
18888;DHT22;9576;47.792;9.628;2024-02-23T01:20:12;5.50;99.90
18888;DHT22;9576;47.792;9.628;2024-02-23T01:23:14;5.50;99.90
18888;DHT22;9576;47.792;9.628;2024-02-23T01:26:15;5.50;99.90
18888;DHT22;9576;47.792;9.628;2024-02-23T01:29:18;5.50;99.90
18888;DHT22;9576;47.792;9.628;2024-02-23T01:32:20;5.50;99.90
18888;DHT22;9576;47.792;9.628;2024-02-23T01:35:22;5.50;99.90
18888;DHT22;9576;47.792;9.628;2024-02-23T01:38:23;5.50;99.90
18888;DHT22;9576;47.792;9.628;2024-02-23T01:41:29;5.50;99.90
18888;DHT22;9576;47.792;9.628;2024-02-23T01:44:32;5.60;99.90
18888;DHT22;9576;47.792;9.628;2024-02-23T01:47:34;5.60;99.90
18888;DHT22;9576;47.792;9.628;2024-02-23T01:50:36;5.60;99.90
18888;DHT22;9576;47.792;9.628;2024-02-23T01:53:37;5.60;99.90
18888;DHT22;9576;47.792;9.628;2024-02-23T01:56:39;5.60;99.90
18888;DHT22;9576;47.792;9.628;2024-02-23T01:59:42;5.60;99.90
18888;DHT22;9576;47.792;9.628;2024-02-23T02:02:44;5.70;99.90
18888;DHT22;9576;47.792;9.628;2024-02-23T02:05:47;5.80;99.90
18888;DHT22;9576;47.792;9.628;2024-02-23T02:08:49;5.80;99.90
18888;DHT22;9576;47.792;9.628;2024-02-23T02:11:51;5.90;99.90
18888;DHT22;9576;47.792;9.628;2024-02-23T02:14:54;5.90;99.90
18888;DHT22;9576;47.792;9.628;2024-02-23T02:17:56;5.80;99.90
18888;DHT22;9576;47.792;9.628;2024-02-23T02:20:58;5.70;99.90
18888;DHT22;9576;47.792;9.628;2024-02-23T02:24:02;5.70;99.90
18888;DHT22;9576;47.792;9.628;2024-02-23T02:27:04;5.60;99.90
18888;DHT22;9576;47.792;9.628;2024-02-23T02:30:08;5.50;99.90
18888;DHT22;9576;47.792;9.628;2024-02-23T02:33:10;5.40;99.90
18888;DHT22;9576;47.792;9.628;2024-02-23T02:36:12;5.40;99.90
18888;DHT22;9576;47.792;9.628;2024-02-23T02:39:14;5.30;99.90
18888;DHT22;9576;47.792;9.628;2024-02-23T02:42:16;5.30;99.90
18888;DHT22;9576;47.792;9.628;2024-02-23T02:45:19;5.30;99.90
18888;DHT22;9576;47.792;9.628;2024-02-23T02:48:20;5.20;99.90
18888;DHT22;9576;47.792;9.628;2024-02-23T02:51:22;5.10;99.90
18888;DHT22;9576;47.792;9.628;2024-02-23T02:54:24;5.10;99.90
18888;DHT22;9576;47.792;9.628;2024-02-23T02:57:25;5.10;99.90
18888;DHT22;9576;47.792;9.628;2024-02-23T03:00:28;5.10;99.90
18888;DHT22;9576;47.792;9.628;2024-02-23T03:03:31;5.10;99.90
18888;DHT22;9576;47.792;9.628;2024-02-23T03:06:33;5.10;99.90
18888;DHT22;9576;47.792;9.628;2024-02-23T03:09:34;5.00;99.90
18888;DHT22;9576;47.792;9.628;2024-02-23T03:12:36;5.00;99.90
18888;DHT22;9576;47.792;9.628;2024-02-23T03:15:39;5.00;99.90
18888;DHT22;9576;47.792;9.628;2024-02-23T03:18:41;5.00;99.90
18888;DHT22;9576;47.792;9.628;2024-02-23T03:21:42;5.00;99.90
18888;DHT22;9576;47.792;9.628;2024-02-23T03:24:44;5.00;99.90
18888;DHT22;9576;47.792;9.628;2024-02-23T03:27:46;4.90;99.90
18888;DHT22;9576;47.792;9.628;2024-02-23T03:30:49;4.90;99.90
18888;DHT22;9576;47.792;9.628;2024-02-23T03:33:50;5.00;99.90
18888;DHT22;9576;47.792;9.628;2024-02-23T03:36:52;5.00;99.90
18888;DHT22;9576;47.792;9.628;2024-02-23T03:39:54;4.90;99.90
18888;DHT22;9576;47.792;9.628;2024-02-23T03:42:55;4.80;99.90
18888;DHT22;9576;47.792;9.628;2024-02-23T03:45:59;4.80;99.90
18888;DHT22;9576;47.792;9.628;2024-02-23T03:49:00;4.70;99.90
18888;DHT22;9576;47.792;9.628;2024-02-23T03:52:02;4.70;99.90
18888;DHT22;9576;47.792;9.628;2024-02-23T03:55:04;4.60;99.90
18888;DHT22;9576;47.792;9.628;2024-02-23T03:58:06;4.60;99.90
18888;DHT22;9576;47.792;9.628;2024-02-23T04:01:09;4.60;99.90
18888;DHT22;9576;47.792;9.628;2024-02-23T04:04:11;4.60;99.90
18888;DHT22;9576;47.792;9.628;2024-02-23T04:07:12;4.60;99.90
18888;DHT22;9576;47.792;9.628;2024-02-23T04:10:14;4.60;99.90
18888;DHT22;9576;47.792;9.628;2024-02-23T04:13:16;4.60;99.90
18888;DHT22;9576;47.792;9.628;2024-02-23T04:16:23;4.70;99.90
18888;DHT22;9576;47.792;9.628;2024-02-23T04:19:25;4.70;99.90
18888;DHT22;9576;47.792;9.628;2024-02-23T04:22:26;4.70;99.90
18888;DHT22;9576;47.792;9.628;2024-02-23T04:25:28;4.80;99.90
18888;DHT22;9576;47.792;9.628;2024-02-23T04:28:30;4.80;99.90
18888;DHT22;9576;47.792;9.628;2024-02-23T04:31:37;4.90;99.90
18888;DHT22;9576;47.792;9.628;2024-02-23T04:34:39;4.90;99.90
18888;DHT22;9576;47.792;9.628;2024-02-23T04:37:43;4.80;99.90
18888;DHT22;9576;47.792;9.628;2024-02-23T04:40:44;4.80;99.90
18888;DHT22;9576;47.792;9.628;2024-02-23T04:43:46;4.80;99.90
18888;DHT22;9576;47.792;9.628;2024-02-23T04:46:49;4.90;99.90
18888;DHT22;9576;47.792;9.628;2024-02-23T04:49:51;5.00;99.90
18888;DHT22;9576;47.792;9.628;2024-02-23T04:52:52;5.00;99.90
18888;DHT22;9576;47.792;9.628;2024-02-23T04:55:54;5.00;99.90
18888;DHT22;9576;47.792;9.628;2024-02-23T04:58:56;5.00;99.90
18888;DHT22;9576;47.792;9.628;2024-02-23T05:01:59;4.90;99.90
18888;DHT22;9576;47.792;9.628;2024-02-23T05:05:01;4.90;99.90
18888;DHT22;9576;47.792;9.628;2024-02-23T05:08:05;4.80;99.90
18888;DHT22;9576;47.792;9.628;2024-02-23T05:11:06;4.80;99.90
18888;DHT22;9576;47.792;9.628;2024-02-23T05:14:08;4.70;99.90
18888;DHT22;9576;47.792;9.628;2024-02-23T05:17:11;4.60;99.90
18888;DHT22;9576;47.792;9.628;2024-02-23T05:20:13;4.60;99.90
18888;DHT22;9576;47.792;9.628;2024-02-23T05:23:15;4.60;99.90
18888;DHT22;9576;47.792;9.628;2024-02-23T05:26:17;4.50;99.90
18888;DHT22;9576;47.792;9.628;2024-02-23T05:29:18;4.50;99.90
18888;DHT22;9576;47.792;9.628;2024-02-23T05:32:24;4.60;99.90
18888;DHT22;9576;47.792;9.628;2024-02-23T05:35:25;4.70;99.90
18888;DHT22;9576;47.792;9.628;2024-02-23T05:38:28;4.60;99.90
18888;DHT22;9576;47.792;9.628;2024-02-23T05:41:29;4.60;99.90
18888;DHT22;9576;47.792;9.628;2024-02-23T05:44:31;4.70;99.90
18888;DHT22;9576;47.792;9.628;2024-02-23T05:47:34;4.60;99.90
18888;DHT22;9576;47.792;9.628;2024-02-23T05:50:36;4.60;99.90
18888;DHT22;9576;47.792;9.628;2024-02-23T05:53:37;4.50;99.90
18888;DHT22;9576;47.792;9.628;2024-02-23T05:56:39;4.40;99.90
18888;DHT22;9576;47.792;9.628;2024-02-23T05:59:41;4.40;99.90
18888;DHT22;9576;47.792;9.628;2024-02-23T06:02:44;4.40;99.90
18888;DHT22;9576;47.792;9.628;2024-02-23T06:05:45;4.40;99.90
18888;DHT22;9576;47.792;9.628;2024-02-23T06:08:47;4.30;99.90
18888;DHT22;9576;47.792;9.628;2024-02-23T06:11:50;4.40;99.90
18888;DHT22;9576;47.792;9.628;2024-02-23T06:14:52;4.40;99.90
18888;DHT22;9576;47.792;9.628;2024-02-23T06:17:57;4.40;99.90
18888;DHT22;9576;47.792;9.628;2024-02-23T06:20:58;4.40;99.90
18888;DHT22;9576;47.792;9.628;2024-02-23T06:24:00;4.40;99.90
18888;DHT22;9576;47.792;9.628;2024-02-23T06:27:03;4.40;99.90
18888;DHT22;9576;47.792;9.628;2024-02-23T06:30:05;4.30;99.90
18888;DHT22;9576;47.792;9.628;2024-02-23T06:33:08;4.30;99.90
18888;DHT22;9576;47.792;9.628;2024-02-23T06:36:10;4.30;99.90
18888;DHT22;9576;47.792;9.628;2024-02-23T06:39:11;4.30;99.90
18888;DHT22;9576;47.792;9.628;2024-02-23T06:42:13;4.30;99.90
18888;DHT22;9576;47.792;9.628;2024-02-23T06:45:15;4.30;99.90
18888;DHT22;9576;47.792;9.628;2024-02-23T06:48:18;4.40;99.90
18888;DHT22;9576;47.792;9.628;2024-02-23T06:51:20;4.40;99.90
18888;DHT22;9576;47.792;9.628;2024-02-23T06:54:22;4.40;99.90
18888;DHT22;9576;47.792;9.628;2024-02-23T06:57:23;4.40;99.90
18888;DHT22;9576;47.792;9.628;2024-02-23T07:00:26;4.50;99.90
18888;DHT22;9576;47.792;9.628;2024-02-23T07:03:29;4.50;99.90
18888;DHT22;9576;47.792;9.628;2024-02-23T07:06:31;4.50;99.90
18888;DHT22;9576;47.792;9.628;2024-02-23T07:09:32;4.50;99.90
18888;DHT22;9576;47.792;9.628;2024-02-23T07:12:35;4.50;99.90
18888;DHT22;9576;47.792;9.628;2024-02-23T07:15:36;4.60;99.90
18888;DHT22;9576;47.792;9.628;2024-02-23T07:18:41;4.60;99.90
18888;DHT22;9576;47.792;9.628;2024-02-23T07:21:43;4.60;99.90
18888;DHT22;9576;47.792;9.628;2024-02-23T07:24:44;4.60;99.90
18888;DHT22;9576;47.792;9.628;2024-02-23T07:27:46;4.60;99.90
18888;DHT22;9576;47.792;9.628;2024-02-23T07:30:49;4.60;99.90
18888;DHT22;9576;47.792;9.628;2024-02-23T07:33:52;4.70;99.90
18888;DHT22;9576;47.792;9.628;2024-02-23T07:36:54;4.70;99.90
18888;DHT22;9576;47.792;9.628;2024-02-23T07:39:56;4.70;99.90
18888;DHT22;9576;47.792;9.628;2024-02-23T07:42:57;4.80;99.90
18888;DHT22;9576;47.792;9.628;2024-02-23T07:45:59;4.80;99.90
18888;DHT22;9576;47.792;9.628;2024-02-23T07:49:03;4.90;99.90
18888;DHT22;9576;47.792;9.628;2024-02-23T07:52:06;4.90;99.90
18888;DHT22;9576;47.792;9.628;2024-02-23T07:55:08;4.90;99.90
18888;DHT22;9576;47.792;9.628;2024-02-23T07:58:10;5.00;99.90
18888;DHT22;9576;47.792;9.628;2024-02-23T08:01:12;5.00;99.90
18888;DHT22;9576;47.792;9.628;2024-02-23T08:04:15;5.00;99.90
18888;DHT22;9576;47.792;9.628;2024-02-23T08:07:16;4.90;99.90
18888;DHT22;9576;47.792;9.628;2024-02-23T08:10:18;4.80;99.90
18888;DHT22;9576;47.792;9.628;2024-02-23T08:13:21;4.90;99.90
18888;DHT22;9576;47.792;9.628;2024-02-23T08:16:23;4.90;99.90
18888;DHT22;9576;47.792;9.628;2024-02-23T08:19:26;4.80;99.90
18888;DHT22;9576;47.792;9.628;2024-02-23T08:22:27;4.80;99.90
18888;DHT22;9576;47.792;9.628;2024-02-23T08:25:29;4.80;99.90
18888;DHT22;9576;47.792;9.628;2024-02-23T08:28:31;4.90;99.90
18888;DHT22;9576;47.792;9.628;2024-02-23T08:31:32;4.90;99.90
18888;DHT22;9576;47.792;9.628;2024-02-23T08:34:36;5.00;99.90
18888;DHT22;9576;47.792;9.628;2024-02-23T08:37:37;5.10;99.90
18888;DHT22;9576;47.792;9.628;2024-02-23T08:40:39;5.20;99.90
18888;DHT22;9576;47.792;9.628;2024-02-23T08:43:42;5.20;99.90
18888;DHT22;9576;47.792;9.628;2024-02-23T08:46:44;5.20;99.90
18888;DHT22;9576;47.792;9.628;2024-02-23T08:49:47;5.20;99.90
18888;DHT22;9576;47.792;9.628;2024-02-23T08:52:48;5.20;99.90
18888;DHT22;9576;47.792;9.628;2024-02-23T08:55:50;5.20;99.90
18888;DHT22;9576;47.792;9.628;2024-02-23T08:58:52;5.20;99.90
18888;DHT22;9576;47.792;9.628;2024-02-23T09:01:53;5.20;99.90
18888;DHT22;9576;47.792;9.628;2024-02-23T09:04:57;5.20;99.90
18888;DHT22;9576;47.792;9.628;2024-02-23T09:07:58;5.20;99.90
18888;DHT22;9576;47.792;9.628;2024-02-23T09:11:00;5.30;99.90
18888;DHT22;9576;47.792;9.628;2024-02-23T09:14:02;5.30;99.90
18888;DHT22;9576;47.792;9.628;2024-02-23T09:17:04;5.40;99.90
18888;DHT22;9576;47.792;9.628;2024-02-23T09:20:08;5.40;99.90
18888;DHT22;9576;47.792;9.628;2024-02-23T09:23:10;5.40;99.90
18888;DHT22;9576;47.792;9.628;2024-02-23T09:26:12;5.30;99.90
18888;DHT22;9576;47.792;9.628;2024-02-23T09:29:14;5.40;99.90
18888;DHT22;9576;47.792;9.628;2024-02-23T09:32:15;5.40;99.90
18888;DHT22;9576;47.792;9.628;2024-02-23T09:35:18;5.40;99.90
18888;DHT22;9576;47.792;9.628;2024-02-23T09:38:20;5.40;99.90
18888;DHT22;9576;47.792;9.628;2024-02-23T09:41:22;5.50;99.90
18888;DHT22;9576;47.792;9.628;2024-02-23T09:44:25;5.60;99.90
18888;DHT22;9576;47.792;9.628;2024-02-23T09:47:28;5.60;99.90
18888;DHT22;9576;47.792;9.628;2024-02-23T09:50:31;5.70;99.90
18888;DHT22;9576;47.792;9.628;2024-02-23T09:53:33;5.70;99.90
18888;DHT22;9576;47.792;9.628;2024-02-23T09:56:36;5.80;99.90
18888;DHT22;9576;47.792;9.628;2024-02-23T09:59:38;5.80;99.90
18888;DHT22;9576;47.792;9.628;2024-02-23T10:02:39;5.80;99.90
18888;DHT22;9576;47.792;9.628;2024-02-23T10:05:43;5.80;99.90
18888;DHT22;9576;47.792;9.628;2024-02-23T10:08:46;5.90;99.90
18888;DHT22;9576;47.792;9.628;2024-02-23T10:11:51;5.80;99.90
18888;DHT22;9576;47.792;9.628;2024-02-23T10:14:53;5.80;99.90
18888;DHT22;9576;47.792;9.628;2024-02-23T10:17:54;5.80;99.90
18888;DHT22;9576;47.792;9.628;2024-02-23T10:20:57;5.80;99.90
18888;DHT22;9576;47.792;9.628;2024-02-23T10:23:59;5.80;99.90
18888;DHT22;9576;47.792;9.628;2024-02-23T10:27:01;5.90;99.90
18888;DHT22;9576;47.792;9.628;2024-02-23T10:30:03;6.00;99.90
18888;DHT22;9576;47.792;9.628;2024-02-23T10:33:05;6.10;99.90
18888;DHT22;9576;47.792;9.628;2024-02-23T10:36:08;6.20;99.90
18888;DHT22;9576;47.792;9.628;2024-02-23T10:39:11;6.20;99.90
18888;DHT22;9576;47.792;9.628;2024-02-23T10:42:16;6.30;99.90
18888;DHT22;9576;47.792;9.628;2024-02-23T10:45:21;6.30;99.90
18888;DHT22;9576;47.792;9.628;2024-02-23T10:48:23;6.40;99.90
18888;DHT22;9576;47.792;9.628;2024-02-23T10:51:26;6.50;99.90
18888;DHT22;9576;47.792;9.628;2024-02-23T10:54:28;6.60;99.90
18888;DHT22;9576;47.792;9.628;2024-02-23T10:57:30;6.60;99.90
18888;DHT22;9576;47.792;9.628;2024-02-23T11:00:33;6.50;99.90
18888;DHT22;9576;47.792;9.628;2024-02-23T11:03:35;6.30;99.90
18888;DHT22;9576;47.792;9.628;2024-02-23T11:06:39;6.30;99.90
18888;DHT22;9576;47.792;9.628;2024-02-23T11:09:41;6.20;99.90
18888;DHT22;9576;47.792;9.628;2024-02-23T11:12:43;6.20;99.90
18888;DHT22;9576;47.792;9.628;2024-02-23T11:15:44;6.20;99.90
18888;DHT22;9576;47.792;9.628;2024-02-23T11:18:46;6.30;99.90
18888;DHT22;9576;47.792;9.628;2024-02-23T11:21:53;6.20;99.90
18888;DHT22;9576;47.792;9.628;2024-02-23T11:24:59;6.20;99.90
18888;DHT22;9576;47.792;9.628;2024-02-23T11:28:00;6.20;99.90
18888;DHT22;9576;47.792;9.628;2024-02-23T11:31:02;6.10;99.90
18888;DHT22;9576;47.792;9.628;2024-02-23T11:34:12;6.10;99.90
18888;DHT22;9576;47.792;9.628;2024-02-23T11:37:15;6.20;99.90
18888;DHT22;9576;47.792;9.628;2024-02-23T11:40:20;6.20;99.90
18888;DHT22;9576;47.792;9.628;2024-02-23T11:43:21;6.20;99.90
18888;DHT22;9576;47.792;9.628;2024-02-23T11:46:23;6.30;99.90
18888;DHT22;9576;47.792;9.628;2024-02-23T11:49:27;6.20;99.90
18888;DHT22;9576;47.792;9.628;2024-02-23T11:52:30;6.40;99.90
18888;DHT22;9576;47.792;9.628;2024-02-23T11:55:32;6.40;99.90
18888;DHT22;9576;47.792;9.628;2024-02-23T11:58:33;6.50;99.90
18888;DHT22;9576;47.792;9.628;2024-02-23T12:01:35;6.60;99.90
18888;DHT22;9576;47.792;9.628;2024-02-23T12:04:37;6.80;99.90
18888;DHT22;9576;47.792;9.628;2024-02-23T12:07:40;6.90;99.90
18888;DHT22;9576;47.792;9.628;2024-02-23T12:10:42;7.10;99.90
18888;DHT22;9576;47.792;9.628;2024-02-23T12:13:44;7.20;99.90
18888;DHT22;9576;47.792;9.628;2024-02-23T12:16:46;7.30;99.90
18888;DHT22;9576;47.792;9.628;2024-02-23T12:19:48;7.30;99.90
18888;DHT22;9576;47.792;9.628;2024-02-23T12:22:52;7.40;99.90
18888;DHT22;9576;47.792;9.628;2024-02-23T12:25:56;7.50;99.90
18888;DHT22;9576;47.792;9.628;2024-02-23T12:29:00;7.50;99.90
18888;DHT22;9576;47.792;9.628;2024-02-23T12:32:02;7.60;99.90
18888;DHT22;9576;47.792;9.628;2024-02-23T12:35:04;7.60;99.90
18888;DHT22;9576;47.792;9.628;2024-02-23T12:38:07;7.80;99.90
18888;DHT22;9576;47.792;9.628;2024-02-23T12:41:09;7.60;99.90
18888;DHT22;9576;47.792;9.628;2024-02-23T12:44:11;7.60;99.90
18888;DHT22;9576;47.792;9.628;2024-02-23T12:47:13;7.70;99.90
18888;DHT22;9576;47.792;9.628;2024-02-23T12:50:15;7.60;99.90
18888;DHT22;9576;47.792;9.628;2024-02-23T12:53:31;7.60;99.90
18888;DHT22;9576;47.792;9.628;2024-02-23T12:56:33;7.80;99.90
18888;DHT22;9576;47.792;9.628;2024-02-23T12:59:35;7.90;99.90
18888;DHT22;9576;47.792;9.628;2024-02-23T13:02:37;7.80;99.90
18888;DHT22;9576;47.792;9.628;2024-02-23T13:05:39;7.90;99.90
18888;DHT22;9576;47.792;9.628;2024-02-23T13:08:42;8.00;99.90
18888;DHT22;9576;47.792;9.628;2024-02-23T13:11:44;8.00;99.90
18888;DHT22;9576;47.792;9.628;2024-02-23T13:14:46;8.00;99.90
18888;DHT22;9576;47.792;9.628;2024-02-23T13:17:47;8.10;99.90
18888;DHT22;9576;47.792;9.628;2024-02-23T13:20:49;8.20;99.90
18888;DHT22;9576;47.792;9.628;2024-02-23T13:23:52;8.40;99.90
18888;DHT22;9576;47.792;9.628;2024-02-23T13:26:54;8.50;99.90
18888;DHT22;9576;47.792;9.628;2024-02-23T13:29:56;8.50;99.90
18888;DHT22;9576;47.792;9.628;2024-02-23T13:32:57;8.50;99.90
18888;DHT22;9576;47.792;9.628;2024-02-23T13:35:59;8.40;99.90
18888;DHT22;9576;47.792;9.628;2024-02-23T13:39:02;8.40;99.90
18888;DHT22;9576;47.792;9.628;2024-02-23T13:42:04;8.30;99.90
18888;DHT22;9576;47.792;9.628;2024-02-23T13:45:09;8.30;99.90
18888;DHT22;9576;47.792;9.628;2024-02-23T13:48:10;8.20;99.90
18888;DHT22;9576;47.792;9.628;2024-02-23T13:51:13;8.10;99.90
18888;DHT22;9576;47.792;9.628;2024-02-23T13:54:16;8.00;99.90
18888;DHT22;9576;47.792;9.628;2024-02-23T13:57:17;7.90;99.90
18888;DHT22;9576;47.792;9.628;2024-02-23T14:00:19;7.80;99.90
18888;DHT22;9576;47.792;9.628;2024-02-23T14:03:21;7.60;99.90
18888;DHT22;9576;47.792;9.628;2024-02-23T14:06:23;7.50;99.90
18888;DHT22;9576;47.792;9.628;2024-02-23T14:09:26;7.60;99.90
18888;DHT22;9576;47.792;9.628;2024-02-23T14:12:28;7.70;99.90
18888;DHT22;9576;47.792;9.628;2024-02-23T14:15:30;7.70;99.90
18888;DHT22;9576;47.792;9.628;2024-02-23T14:18:32;7.70;99.90
18888;DHT22;9576;47.792;9.628;2024-02-23T14:21:37;7.60;99.90
18888;DHT22;9576;47.792;9.628;2024-02-23T14:24:40;7.70;99.90
18888;DHT22;9576;47.792;9.628;2024-02-23T14:30:42;7.60;99.90
18888;DHT22;9576;47.792;9.628;2024-02-23T14:33:44;7.30;99.90
18888;DHT22;9576;47.792;9.628;2024-02-23T14:36:45;7.30;99.90
18888;DHT22;9576;47.792;9.628;2024-02-23T14:39:48;7.30;99.90
18888;DHT22;9576;47.792;9.628;2024-02-23T14:42:50;7.30;99.90
18888;DHT22;9576;47.792;9.628;2024-02-23T14:45:52;7.40;99.90
18888;DHT22;9576;47.792;9.628;2024-02-23T14:48:54;7.50;99.90
18888;DHT22;9576;47.792;9.628;2024-02-23T14:51:55;7.40;99.90
18888;DHT22;9576;47.792;9.628;2024-02-23T14:54:58;7.50;99.90
18888;DHT22;9576;47.792;9.628;2024-02-23T14:58:00;7.50;99.90
18888;DHT22;9576;47.792;9.628;2024-02-23T15:01:02;7.60;99.90
18888;DHT22;9576;47.792;9.628;2024-02-23T15:04:04;7.80;99.90
18888;DHT22;9576;47.792;9.628;2024-02-23T15:07:06;7.80;99.90
18888;DHT22;9576;47.792;9.628;2024-02-23T15:10:09;7.70;99.90
18888;DHT22;9576;47.792;9.628;2024-02-23T15:13:11;7.70;99.90
18888;DHT22;9576;47.792;9.628;2024-02-23T15:16:12;7.90;99.90
18888;DHT22;9576;47.792;9.628;2024-02-23T15:19:14;8.10;99.90
18888;DHT22;9576;47.792;9.628;2024-02-23T15:22:16;8.20;99.90
18888;DHT22;9576;47.792;9.628;2024-02-23T15:25:20;8.20;99.90
18888;DHT22;9576;47.792;9.628;2024-02-23T15:28:22;8.10;99.90
18888;DHT22;9576;47.792;9.628;2024-02-23T15:31:24;8.10;99.90
18888;DHT22;9576;47.792;9.628;2024-02-23T15:34:26;8.00;99.90
18888;DHT22;9576;47.792;9.628;2024-02-23T15:37:27;8.00;99.90
18888;DHT22;9576;47.792;9.628;2024-02-23T15:40:30;7.70;99.90
18888;DHT22;9576;47.792;9.628;2024-02-23T15:43:32;7.60;99.90
18888;DHT22;9576;47.792;9.628;2024-02-23T15:46:34;7.30;99.90
18888;DHT22;9576;47.792;9.628;2024-02-23T15:49:35;7.20;99.90
18888;DHT22;9576;47.792;9.628;2024-02-23T15:52:37;7.10;99.90
18888;DHT22;9576;47.792;9.628;2024-02-23T15:55:41;7.20;99.90
18888;DHT22;9576;47.792;9.628;2024-02-23T15:58:42;7.20;99.90
18888;DHT22;9576;47.792;9.628;2024-02-23T16:01:44;7.10;99.90
18888;DHT22;9576;47.792;9.628;2024-02-23T16:04:46;7.00;99.90
18888;DHT22;9576;47.792;9.628;2024-02-23T16:07:48;6.90;99.90
18888;DHT22;9576;47.792;9.628;2024-02-23T16:10:52;6.70;99.90
18888;DHT22;9576;47.792;9.628;2024-02-23T16:13:53;6.60;99.90
18888;DHT22;9576;47.792;9.628;2024-02-23T16:16:55;6.60;99.90
18888;DHT22;9576;47.792;9.628;2024-02-23T16:19:57;6.50;99.90
18888;DHT22;9576;47.792;9.628;2024-02-23T16:22:58;6.40;99.90
18888;DHT22;9576;47.792;9.628;2024-02-23T16:26:02;6.40;99.90
18888;DHT22;9576;47.792;9.628;2024-02-23T16:29:04;6.30;99.90
18888;DHT22;9576;47.792;9.628;2024-02-23T16:32:06;6.20;99.90
18888;DHT22;9576;47.792;9.628;2024-02-23T16:35:08;6.20;99.90
18888;DHT22;9576;47.792;9.628;2024-02-23T16:38:16;6.20;99.90
18888;DHT22;9576;47.792;9.628;2024-02-23T16:41:19;6.20;99.90
18888;DHT22;9576;47.792;9.628;2024-02-23T16:44:21;6.20;99.90
18888;DHT22;9576;47.792;9.628;2024-02-23T16:47:23;6.30;99.90
18888;DHT22;9576;47.792;9.628;2024-02-23T16:50:25;6.20;99.90
18888;DHT22;9576;47.792;9.628;2024-02-23T16:53:27;6.10;99.90
18888;DHT22;9576;47.792;9.628;2024-02-23T16:56:30;6.00;99.90
18888;DHT22;9576;47.792;9.628;2024-02-23T16:59:31;5.80;99.90
18888;DHT22;9576;47.792;9.628;2024-02-23T17:02:33;5.70;99.90
18888;DHT22;9576;47.792;9.628;2024-02-23T17:05:35;5.60;99.90
18888;DHT22;9576;47.792;9.628;2024-02-23T17:08:37;5.60;99.90
18888;DHT22;9576;47.792;9.628;2024-02-23T17:11:42;5.50;99.90
18888;DHT22;9576;47.792;9.628;2024-02-23T17:14:43;5.40;99.90
18888;DHT22;9576;47.792;9.628;2024-02-23T17:17:45;5.50;99.90
18888;DHT22;9576;47.792;9.628;2024-02-23T17:20:47;5.50;99.90
18888;DHT22;9576;47.792;9.628;2024-02-23T17:23:48;5.60;99.90
18888;DHT22;9576;47.792;9.628;2024-02-23T17:26:51;5.50;99.90
18888;DHT22;9576;47.792;9.628;2024-02-23T17:29:53;5.50;99.90
18888;DHT22;9576;47.792;9.628;2024-02-23T17:32:55;5.50;99.90
18888;DHT22;9576;47.792;9.628;2024-02-23T17:35:56;5.50;99.90
18888;DHT22;9576;47.792;9.628;2024-02-23T17:38:58;5.40;99.90
18888;DHT22;9576;47.792;9.628;2024-02-23T17:42:01;5.40;99.90
18888;DHT22;9576;47.792;9.628;2024-02-23T17:45:04;5.40;99.90
18888;DHT22;9576;47.792;9.628;2024-02-23T17:48:06;5.40;99.90
18888;DHT22;9576;47.792;9.628;2024-02-23T17:51:09;5.40;99.90
18888;DHT22;9576;47.792;9.628;2024-02-23T17:54:10;5.40;99.90
18888;DHT22;9576;47.792;9.628;2024-02-23T17:57:13;5.40;99.90
18888;DHT22;9576;47.792;9.628;2024-02-23T18:00:15;5.30;99.90
18888;DHT22;9576;47.792;9.628;2024-02-23T18:03:17;5.30;99.90
18888;DHT22;9576;47.792;9.628;2024-02-23T18:06:19;5.10;99.90
18888;DHT22;9576;47.792;9.628;2024-02-23T18:09:23;5.10;99.90
18888;DHT22;9576;47.792;9.628;2024-02-23T18:12:27;4.90;99.90
18888;DHT22;9576;47.792;9.628;2024-02-23T18:15:29;4.80;99.90
18888;DHT22;9576;47.792;9.628;2024-02-23T18:18:30;4.70;99.90
18888;DHT22;9576;47.792;9.628;2024-02-23T18:21:33;4.70;99.90
18888;DHT22;9576;47.792;9.628;2024-02-23T18:24:34;4.60;99.90
18888;DHT22;9576;47.792;9.628;2024-02-23T18:27:37;4.50;99.90
18888;DHT22;9576;47.792;9.628;2024-02-23T18:30:39;4.50;99.90
18888;DHT22;9576;47.792;9.628;2024-02-23T18:33:41;4.50;99.90
18888;DHT22;9576;47.792;9.628;2024-02-23T18:36:42;4.50;99.90
18888;DHT22;9576;47.792;9.628;2024-02-23T18:39:44;4.60;99.90
18888;DHT22;9576;47.792;9.628;2024-02-23T18:42:47;4.60;99.90
18888;DHT22;9576;47.792;9.628;2024-02-23T18:45:49;4.60;99.90
18888;DHT22;9576;47.792;9.628;2024-02-23T18:48:51;4.60;99.90
18888;DHT22;9576;47.792;9.628;2024-02-23T18:51:53;4.50;99.90
18888;DHT22;9576;47.792;9.628;2024-02-23T18:54:55;4.30;99.90
18888;DHT22;9576;47.792;9.628;2024-02-23T18:57:59;4.40;99.90
18888;DHT22;9576;47.792;9.628;2024-02-23T19:01:01;4.40;99.90
18888;DHT22;9576;47.792;9.628;2024-02-23T19:04:07;4.30;99.90
18888;DHT22;9576;47.792;9.628;2024-02-23T19:07:08;4.10;99.90
18888;DHT22;9576;47.792;9.628;2024-02-23T19:10:10;4.10;99.90
18888;DHT22;9576;47.792;9.628;2024-02-23T19:13:13;4.10;99.90
18888;DHT22;9576;47.792;9.628;2024-02-23T19:16:15;4.10;99.90
18888;DHT22;9576;47.792;9.628;2024-02-23T19:19:19;4.00;99.90
18888;DHT22;9576;47.792;9.628;2024-02-23T19:22:21;4.10;99.90
18888;DHT22;9576;47.792;9.628;2024-02-23T19:25:23;4.00;99.90
18888;DHT22;9576;47.792;9.628;2024-02-23T19:28:26;3.90;99.90
18888;DHT22;9576;47.792;9.628;2024-02-23T19:31:27;3.90;99.90
18888;DHT22;9576;47.792;9.628;2024-02-23T19:34:29;3.90;99.90
18888;DHT22;9576;47.792;9.628;2024-02-23T19:37:31;3.80;99.90
18888;DHT22;9576;47.792;9.628;2024-02-23T19:40:33;3.90;99.90
18888;DHT22;9576;47.792;9.628;2024-02-23T19:43:36;3.90;99.90
18888;DHT22;9576;47.792;9.628;2024-02-23T19:46:38;3.90;99.90
18888;DHT22;9576;47.792;9.628;2024-02-23T19:49:40;3.80;99.90
18888;DHT22;9576;47.792;9.628;2024-02-23T19:52:41;3.90;99.90